Muson — UGLB — position and weather

sailwx.info

Track history (hours):
 
Tides and Currents Weather Stations Pressure Air Temp Water Temp Dewpoint Dewpoint Depression Visibility Wind Speed Wind Dir Waves Ship Positions

Muson

Last reported at 2014-Nov-20 13:10 UTC. Time now 2014-Nov-21 02:34 UTC.
Position N 59°55' E 030°14'.

Length 180 m; draft 4.6 m.

Type: Tug. MMSI: 273444990.

Date/timePositionNaut miles runAvg speedWind from/ knotsBaromVisibWave heightAir tempDewpointWater temp
2014-Nov-20 13:10N 59°55' E 030°14'0 0.0
2014-Nov-20 12:33N 59°55' E 030°14'0 0.0
2014-Nov-20 10:14N 59°55' E 030°14'0 0.0
2014-Nov-20 06:08N 59°54' E 030°14'0 0.1
2014-Nov-20 04:33N 59°54' E 030°14'1 1.2
2014-Nov-20 03:33N 59°53' E 030°12'2 2.4
2014-Nov-20 02:33N 59°55' E 030°15'1 0.5
2014-Nov-20 00:33N 59°55' E 030°14'0 0.0
2014-Nov-19 23:25N 59°55' E 030°14'0 0.0
2014-Nov-19 22:28N 59°55' E 030°14'0 0.0
2014-Nov-19 21:30N 59°55' E 030°14'0 0.0
2014-Nov-19 16:30N 59°55' E 030°14'0 0.0
2014-Nov-19 15:33N 59°55' E 030°14'0 0.0
2014-Nov-19 14:33N 59°55' E 030°14'0 0.0
2014-Nov-19 13:33N 59°55' E 030°14'0 0.0
2014-Nov-19 12:24N 59°55' E 030°14'0 0.0
2014-Nov-19 10:33N 59°55' E 030°14'0 0.0
2014-Nov-19 08:16N 59°55' E 030°14'0 0.0
2014-Nov-19 06:19N 59°55' E 030°14'0 0.0
2014-Nov-18 20:09N 59°55' E 030°14'0 0.2
2014-Nov-18 18:33N 59°55' E 030°14'0 0.1
2014-Nov-18 12:33N 59°55' E 030°14'0 0.0
2014-Nov-18 09:22N 59°55' E 030°14'0 0.0
2014-Nov-18 08:17N 59°55' E 030°14'0 0.0
2014-Nov-18 02:31N 59°55' E 030°14'0 0.0
2014-Nov-18 01:28N 59°55' E 030°14'0 0.0
2014-Nov-18 00:33N 59°55' E 030°14'0 0.0
2014-Nov-17 23:29N 59°55' E 030°14'0 0.0
2014-Nov-17 16:07N 59°55' E 030°14'0 0.1
2014-Nov-17 15:33N 59°55' E 030°14'0 0.0
2014-Nov-17 11:32N 59°55' E 030°14'0 0.0
2014-Nov-17 07:33N 59°55' E 030°14'0 0.0
2014-Nov-16 21:33N 59°55' E 030°14'0 0.0
2014-Nov-16 20:33N 59°55' E 030°14'0 0.0
2014-Nov-16 19:33N 59°55' E 030°14'0 0.0
2014-Nov-16 18:33N 59°55' E 030°14'0 0.0
2014-Nov-16 17:33N 59°55' E 030°14'0 0.0
2014-Nov-16 16:33N 59°55' E 030°14'0 0.0
2014-Nov-16 15:33N 59°55' E 030°14'0 0.0
2014-Nov-16 14:26N 59°55' E 030°14'0 0.0
2014-Nov-16 13:33N 59°55' E 030°14'0 0.1
2014-Nov-16 12:33N 59°55' E 030°14'0 0.1
2014-Nov-16 11:32N 59°55' E 030°14'0 0.0
2014-Nov-16 10:33N 59°55' E 030°14'0 0.0
2014-Nov-16 09:32N 59°55' E 030°14'0 0.0
2014-Nov-16 08:33N 59°55' E 030°14'0 0.4
2014-Nov-16 07:33N 59°55' E 030°14'3 0.2
2014-Nov-15 10:12N 59°54' E 030°08'5 1.3
2014-Nov-15 06:10N 59°56' E 030°17'0 0.1
2014-Nov-15 05:33N 59°56' E 030°17'0 0.0
2014-Nov-15 04:32N 59°56' E 030°17'0 0.0
2014-Nov-15 03:33N 59°56' E 030°17'0 0.0
2014-Nov-15 02:33N 59°56' E 030°17'0 0.0
2014-Nov-15 01:33N 59°56' E 030°17'0 0.0
2014-Nov-15 00:33N 59°56' E 030°17'0 0.0
2014-Nov-14 23:33N 59°56' E 030°17'0 0.0
2014-Nov-14 22:33N 59°56' E 030°17'0 0.0
2014-Nov-14 21:33N 59°56' E 030°17'0 0.0
2014-Nov-14 20:33N 59°56' E 030°17'0 0.0
2014-Nov-14 19:33N 59°56' E 030°17'0 0.0
2014-Nov-14 18:33N 59°56' E 030°17'0 0.0
2014-Nov-14 17:33N 59°56' E 030°17'0 0.0
2014-Nov-14 16:33N 59°56' E 030°17'0 0.0
2014-Nov-14 15:33N 59°56' E 030°17'0 0.0
2014-Nov-14 14:33N 59°56' E 030°17'0 0.0
2014-Nov-14 12:33N 59°56' E 030°17'0 0.0
2014-Nov-14 11:33N 59°56' E 030°17'0 0.0
2014-Nov-14 10:33N 59°56' E 030°17'0 0.0
2014-Nov-14 09:33N 59°56' E 030°17'0 0.0
2014-Nov-14 08:33N 59°56' E 030°17'0 0.0
2014-Nov-14 07:33N 59°56' E 030°17'0 0.0
2014-Nov-14 06:33N 59°56' E 030°17'0 0.0
2014-Nov-14 05:33N 59°56' E 030°17'2 1.6
2014-Nov-14 04:04N 59°55' E 030°14'0 0.0
2014-Nov-14 03:27N 59°55' E 030°14'0 0.0
2014-Nov-14 02:31N 59°55' E 030°14'0 0.0
2014-Nov-14 01:33N 59°55' E 030°14'3 3.4
2014-Nov-14 00:33N 59°57' E 030°19'0 0.1
2014-Nov-13 23:33N 59°57' E 030°19'1 0.8
2014-Nov-13 22:33N 59°56' E 030°18'1 0.5
2014-Nov-13 21:33N 59°56' E 030°17'0 0.2
2014-Nov-13 20:33N 59°56' E 030°17'2 1.9
2014-Nov-13 19:30N 59°55' E 030°14'0 0.0
2014-Nov-13 18:33N 59°55' E 030°14'0 0.0
2014-Nov-13 16:22N 59°55' E 030°14'0 0.0
2014-Nov-13 15:33N 59°55' E 030°14'0 0.1
2014-Nov-13 14:32N 59°55' E 030°14'0 0.1
2014-Nov-13 13:33N 59°55' E 030°14'0 0.0
2014-Nov-13 10:32N 59°55' E 030°14'0 0.0
2014-Nov-11 10:14N 59°55' E 030°14'0 0.0
2014-Nov-11 09:33N 59°55' E 030°14'0 0.0
2014-Nov-11 08:33N 59°55' E 030°14'0 0.0
2014-Nov-11 07:32N 59°55' E 030°14'0 0.0
2014-Nov-11 06:28N 59°55' E 030°14'0 0.0
2014-Nov-11 00:24N 59°55' E 030°14'0 0.0
2014-Nov-10 23:25N 59°55' E 030°14'0 0.0
2014-Nov-10 20:28N 59°55' E 030°14'0 0.0
2014-Nov-10 15:17N 59°55' E 030°14'0 0.0
2014-Nov-10 14:33N 59°55' E 030°14'0 0.0
2014-Nov-10 13:31N 59°55' E 030°14'  
Track history (hours):
 
Tides and Currents Weather Stations Pressure Air Temp Water Temp Dewpoint Dewpoint Depression Visibility Wind Speed Wind Dir Waves Ship Positions

Muson

Last reported at 2014-Nov-20 13:10 UTC. Time now 2014-Nov-21 02:34 UTC.
Position N 59°55' E 030°14'.

Length 180 m; draft 4.6 m.

Type: Tug. MMSI: 273444990.

Date/timePositionNaut miles runAvg speedWind from/ knotsBaromVisibWave heightAir tempDewpointWater temp
2014-Nov-20 13:10N 59°55' E 030°14'0 0.0
2014-Nov-20 12:33N 59°55' E 030°14'0 0.0
2014-Nov-20 10:14N 59°55' E 030°14'0 0.0
2014-Nov-20 06:08N 59°54' E 030°14'0 0.1
2014-Nov-20 04:33N 59°54' E 030°14'1 1.2
2014-Nov-20 03:33N 59°53' E 030°12'2 2.4
2014-Nov-20 02:33N 59°55' E 030°15'1 0.5
2014-Nov-20 00:33N 59°55' E 030°14'0 0.0
2014-Nov-19 23:25N 59°55' E 030°14'0 0.0
2014-Nov-19 22:28N 59°55' E 030°14'0 0.0
2014-Nov-19 21:30N 59°55' E 030°14'0 0.0
2014-Nov-19 16:30N 59°55' E 030°14'0 0.0
2014-Nov-19 15:33N 59°55' E 030°14'0 0.0
2014-Nov-19 14:33N 59°55' E 030°14'0 0.0
2014-Nov-19 13:33N 59°55' E 030°14'0 0.0
2014-Nov-19 12:24N 59°55' E 030°14'0 0.0
2014-Nov-19 10:33N 59°55' E 030°14'0 0.0
2014-Nov-19 08:16N 59°55' E 030°14'0 0.0
2014-Nov-19 06:19N 59°55' E 030°14'0 0.0
2014-Nov-18 20:09N 59°55' E 030°14'0 0.2
2014-Nov-18 18:33N 59°55' E 030°14'0 0.1
2014-Nov-18 12:33N 59°55' E 030°14'0 0.0
2014-Nov-18 09:22N 59°55' E 030°14'0 0.0
2014-Nov-18 08:17N 59°55' E 030°14'0 0.0
2014-Nov-18 02:31N 59°55' E 030°14'0 0.0
2014-Nov-18 01:28N 59°55' E 030°14'0 0.0
2014-Nov-18 00:33N 59°55' E 030°14'0 0.0
2014-Nov-17 23:29N 59°55' E 030°14'0 0.0
2014-Nov-17 16:07N 59°55' E 030°14'0 0.1
2014-Nov-17 15:33N 59°55' E 030°14'0 0.0
2014-Nov-17 11:32N 59°55' E 030°14'0 0.0
2014-Nov-17 07:33N 59°55' E 030°14'0 0.0
2014-Nov-16 21:33N 59°55' E 030°14'0 0.0
2014-Nov-16 20:33N 59°55' E 030°14'0 0.0
2014-Nov-16 19:33N 59°55' E 030°14'0 0.0
2014-Nov-16 18:33N 59°55' E 030°14'0 0.0
2014-Nov-16 17:33N 59°55' E 030°14'0 0.0
2014-Nov-16 16:33N 59°55' E 030°14'0 0.0
2014-Nov-16 15:33N 59°55' E 030°14'0 0.0
2014-Nov-16 14:26N 59°55' E 030°14'0 0.0
2014-Nov-16 13:33N 59°55' E 030°14'0 0.1
2014-Nov-16 12:33N 59°55' E 030°14'0 0.1
2014-Nov-16 11:32N 59°55' E 030°14'0 0.0
2014-Nov-16 10:33N 59°55' E 030°14'0 0.0
2014-Nov-16 09:32N 59°55' E 030°14'0 0.0
2014-Nov-16 08:33N 59°55' E 030°14'0 0.4
2014-Nov-16 07:33N 59°55' E 030°14'3 0.2
2014-Nov-15 10:12N 59°54' E 030°08'5 1.3
2014-Nov-15 06:10N 59°56' E 030°17'0 0.1
2014-Nov-15 05:33N 59°56' E 030°17'0 0.0
2014-Nov-15 04:32N 59°56' E 030°17'0 0.0
2014-Nov-15 03:33N 59°56' E 030°17'0 0.0
2014-Nov-15 02:33N 59°56' E 030°17'0 0.0
2014-Nov-15 01:33N 59°56' E 030°17'0 0.0
2014-Nov-15 00:33N 59°56' E 030°17'0 0.0
2014-Nov-14 23:33N 59°56' E 030°17'0 0.0
2014-Nov-14 22:33N 59°56' E 030°17'0 0.0
2014-Nov-14 21:33N 59°56' E 030°17'0 0.0
2014-Nov-14 20:33N 59°56' E 030°17'0 0.0
2014-Nov-14 19:33N 59°56' E 030°17'0 0.0
2014-Nov-14 18:33N 59°56' E 030°17'0 0.0
2014-Nov-14 17:33N 59°56' E 030°17'0 0.0
2014-Nov-14 16:33N 59°56' E 030°17'0 0.0
2014-Nov-14 15:33N 59°56' E 030°17'0 0.0
2014-Nov-14 14:33N 59°56' E 030°17'0 0.0
2014-Nov-14 12:33N 59°56' E 030°17'0 0.0
2014-Nov-14 11:33N 59°56' E 030°17'0 0.0
2014-Nov-14 10:33N 59°56' E 030°17'0 0.0
2014-Nov-14 09:33N 59°56' E 030°17'0 0.0
2014-Nov-14 08:33N 59°56' E 030°17'0 0.0
2014-Nov-14 07:33N 59°56' E 030°17'0 0.0
2014-Nov-14 06:33N 59°56' E 030°17'0 0.0
2014-Nov-14 05:33N 59°56' E 030°17'2 1.6
2014-Nov-14 04:04N 59°55' E 030°14'0 0.0
2014-Nov-14 03:27N 59°55' E 030°14'0 0.0
2014-Nov-14 02:31N 59°55' E 030°14'0 0.0
2014-Nov-14 01:33N 59°55' E 030°14'3 3.4
2014-Nov-14 00:33N 59°57' E 030°19'0 0.1
2014-Nov-13 23:33N 59°57' E 030°19'1 0.8
2014-Nov-13 22:33N 59°56' E 030°18'1 0.5
2014-Nov-13 21:33N 59°56' E 030°17'0 0.2
2014-Nov-13 20:33N 59°56' E 030°17'2 1.9
2014-Nov-13 19:30N 59°55' E 030°14'0 0.0
2014-Nov-13 18:33N 59°55' E 030°14'0 0.0
2014-Nov-13 16:22N 59°55' E 030°14'0 0.0
2014-Nov-13 15:33N 59°55' E 030°14'0 0.1
2014-Nov-13 14:32N 59°55' E 030°14'0 0.1
2014-Nov-13 13:33N 59°55' E 030°14'0 0.0
2014-Nov-13 10:32N 59°55' E 030°14'0 0.0
2014-Nov-11 10:14N 59°55' E 030°14'0 0.0
2014-Nov-11 09:33N 59°55' E 030°14'0 0.0
2014-Nov-11 08:33N 59°55' E 030°14'0 0.0
2014-Nov-11 07:32N 59°55' E 030°14'0 0.0
2014-Nov-11 06:28N 59°55' E 030°14'0 0.0
2014-Nov-11 00:24N 59°55' E 030°14'0 0.0
2014-Nov-10 23:25N 59°55' E 030°14'0 0.0
2014-Nov-10 20:28N 59°55' E 030°14'0 0.0
2014-Nov-10 15:17N 59°55' E 030°14'0 0.0
2014-Nov-10 14:33N 59°55' E 030°14'0 0.0
2014-Nov-10 13:31N 59°55' E 030°14'  

Dump ship's entire track history